createdAt,value
2023-03-17T00:00:28.644Z,1012.43
2023-03-17T00:01:28.312Z,1012.41
2023-03-17T00:02:28.354Z,1012.46
2023-03-17T00:03:28.391Z,1012.48
2023-03-17T00:04:28.353Z,1012.50
2023-03-17T00:05:28.356Z,1012.52
2023-03-17T00:06:28.368Z,1012.52
2023-03-17T00:07:28.372Z,1012.48
2023-03-17T00:08:28.378Z,1012.52
2023-03-17T00:09:28.400Z,1012.45
2023-03-17T00:10:28.796Z,1012.45
2023-03-17T00:11:28.466Z,1012.44
2023-03-17T00:12:28.416Z,1012.40
2023-03-17T00:13:28.423Z,1012.39
2023-03-17T00:14:28.565Z,1012.39
2023-03-17T00:15:28.452Z,1012.35
2023-03-17T00:16:28.451Z,1012.32
2023-03-17T00:17:28.462Z,1012.33
2023-03-17T00:18:28.472Z,1012.30
2023-03-17T00:19:28.488Z,1012.27
2023-03-17T00:20:28.779Z,1012.33
2023-03-17T00:21:28.497Z,1012.29
2023-03-17T00:22:28.507Z,1012.27
2023-03-17T00:23:28.575Z,1012.26
2023-03-17T00:24:28.629Z,1012.28
2023-03-17T00:25:28.541Z,1012.19
2023-03-17T00:26:28.563Z,1012.19
2023-03-17T00:27:28.558Z,1012.17
2023-03-17T00:28:28.559Z,1012.13
2023-03-17T00:29:28.740Z,1012.12
2023-03-17T00:30:28.935Z,1012.09
2023-03-17T00:31:28.615Z,1012.11
2023-03-17T00:32:28.628Z,1012.13
2023-03-17T00:33:28.630Z,1012.11
2023-03-17T00:34:28.616Z,1012.12
2023-03-17T00:35:28.669Z,1012.13
2023-03-17T00:36:28.633Z,1012.08
2023-03-17T00:37:28.643Z,1012.11
2023-03-17T00:38:28.650Z,1012.12
2023-03-17T00:39:28.692Z,1012.12
2023-03-17T00:40:28.846Z,1012.10
2023-03-17T00:41:28.687Z,1012.05
2023-03-17T00:42:28.687Z,1011.99
2023-03-17T00:43:30.604Z,1012.03
2023-03-17T00:44:28.709Z,1011.95
2023-03-17T00:45:28.716Z,1011.99
2023-03-17T00:46:28.914Z,1011.96
2023-03-17T00:47:28.736Z,1011.92
2023-03-17T00:48:28.741Z,1011.89
2023-03-17T00:49:28.758Z,1011.89
2023-03-17T00:50:29.004Z,1011.82
2023-03-17T00:51:28.769Z,1011.89
2023-03-17T00:52:28.774Z,1011.83
2023-03-17T00:53:28.784Z,1011.82
2023-03-17T00:54:28.794Z,1011.72
2023-03-17T00:55:28.804Z,1011.76
2023-03-17T00:56:28.823Z,1011.69
2023-03-17T00:57:28.821Z,1011.71
2023-03-17T00:58:28.937Z,1011.65
2023-03-17T00:59:28.975Z,1011.67
2023-03-17T01:00:29.136Z,1011.63
2023-03-17T01:01:28.859Z,1011.64
2023-03-17T01:02:28.915Z,1011.66
2023-03-17T01:03:28.878Z,1011.68
2023-03-17T01:04:28.986Z,1011.63
2023-03-17T01:05:28.894Z,1011.68
2023-03-17T01:06:28.905Z,1011.72
2023-03-17T01:07:28.911Z,1011.71
2023-03-17T01:08:28.920Z,1011.68
2023-03-17T01:09:29.110Z,1011.63
2023-03-17T01:10:29.196Z,1011.55
2023-03-17T01:11:28.947Z,1011.54
2023-03-17T01:12:28.957Z,1011.57
2023-03-17T01:13:28.966Z,1011.54
2023-03-17T01:14:28.983Z,1011.52
2023-03-17T01:15:28.985Z,1011.54
2023-03-17T01:16:29.088Z,1011.54
2023-03-17T01:17:29.000Z,1011.60
2023-03-17T01:18:29.048Z,1011.55
2023-03-17T01:19:29.018Z,1011.65
2023-03-17T01:20:29.322Z,1011.64
2023-03-17T01:21:29.037Z,1011.62
2023-03-17T01:22:29.048Z,1011.65
2023-03-17T01:23:29.055Z,1011.58
2023-03-17T01:24:29.151Z,1011.57
2023-03-17T01:25:29.076Z,1011.55
2023-03-17T01:26:29.084Z,1011.47
2023-03-17T01:27:29.108Z,1011.53
2023-03-17T01:28:29.103Z,1011.52
2023-03-17T01:29:29.170Z,1011.52
2023-03-17T01:30:29.390Z,1011.47
2023-03-17T01:31:29.169Z,1011.49
2023-03-17T01:32:29.163Z,1011.40
2023-03-17T01:33:29.165Z,1011.40
2023-03-17T01:34:29.165Z,1011.40
2023-03-17T01:35:29.170Z,1011.37
2023-03-17T01:36:29.179Z,1011.30
2023-03-17T01:37:29.199Z,1011.31
2023-03-17T01:38:29.197Z,1011.30
2023-03-17T01:39:29.269Z,1011.29
2023-03-17T01:40:29.492Z,1011.29
2023-03-17T01:41:29.221Z,1011.36
2023-03-17T01:42:29.232Z,1011.33
2023-03-17T01:43:29.267Z,1011.28
2023-03-17T01:44:29.251Z,1011.23
2023-03-17T01:45:29.279Z,1011.21
2023-03-17T01:46:29.322Z,1011.17
2023-03-17T01:47:29.278Z,1011.15
2023-03-17T01:48:29.298Z,1011.13
2023-03-17T01:49:29.313Z,1011.10
2023-03-17T01:50:29.564Z,1011.05
2023-03-17T01:51:29.315Z,1011.07
2023-03-17T01:52:29.325Z,1011.12
2023-03-17T01:53:29.341Z,1011.11
2023-03-17T01:54:29.340Z,1011.16
2023-03-17T01:55:29.354Z,1011.16
2023-03-17T01:56:29.362Z,1011.12
2023-03-17T01:57:29.384Z,1011.09
2023-03-17T01:58:29.386Z,1011.12
2023-03-17T01:59:29.389Z,1011.10
2023-03-17T02:00:29.653Z,1011.11
2023-03-17T02:01:29.447Z,1011.08
2023-03-17T02:02:29.422Z,1011.10
2023-03-17T02:03:29.427Z,1011.14
2023-03-17T02:04:29.523Z,1011.08
2023-03-17T02:05:29.447Z,1011.06
2023-03-17T02:06:29.452Z,1011.06
2023-03-17T02:07:29.462Z,1011.02
2023-03-17T02:08:29.481Z,1011.02
2023-03-17T02:09:29.480Z,1010.99
2023-03-17T02:10:29.758Z,1010.99
2023-03-17T02:11:29.499Z,1010.97
2023-03-17T02:12:29.517Z,1010.94
2023-03-17T02:13:29.523Z,1010.94
2023-03-17T02:14:29.527Z,1010.93
2023-03-17T02:15:29.535Z,1010.90
2023-03-17T02:16:29.567Z,1010.91
2023-03-17T02:17:29.550Z,1010.91
2023-03-17T02:18:29.561Z,1010.85
2023-03-17T02:19:29.577Z,1010.85
2023-03-17T02:20:29.819Z,1010.88
2023-03-17T02:21:29.591Z,1010.85
2023-03-17T02:22:29.600Z,1010.91
2023-03-17T02:23:29.609Z,1010.90
2023-03-17T02:24:29.626Z,1010.96
2023-03-17T02:25:29.630Z,1010.91
2023-03-17T02:26:29.633Z,1010.94
2023-03-17T02:27:29.647Z,1010.93
2023-03-17T02:28:29.652Z,1010.92
2023-03-17T02:29:29.743Z,1010.88
2023-03-17T02:30:29.926Z,1010.85
2023-03-17T02:31:29.684Z,1010.85
2023-03-17T02:32:29.775Z,1010.86
2023-03-17T02:33:29.701Z,1010.89
2023-03-17T02:34:29.710Z,1010.84
2023-03-17T02:35:29.733Z,1010.81
2023-03-17T02:36:29.757Z,1010.76
2023-03-17T02:37:29.740Z,1010.78
2023-03-17T02:38:29.754Z,1010.74
2023-03-17T02:39:29.760Z,1010.78
2023-03-17T02:40:30.026Z,1010.76
2023-03-17T02:41:29.777Z,1010.76
2023-03-17T02:42:29.785Z,1010.75
2023-03-17T02:43:29.797Z,1010.72
2023-03-17T02:44:29.806Z,1010.72
2023-03-17T02:45:29.816Z,1010.73
2023-03-17T02:46:29.850Z,1010.70
2023-03-17T02:47:29.832Z,1010.71
2023-03-17T02:48:29.847Z,1010.65
2023-03-17T02:49:29.852Z,1010.72
2023-03-17T02:50:30.027Z,1010.66
2023-03-17T02:51:29.873Z,1010.69
2023-03-17T02:52:29.878Z,1010.65
2023-03-17T02:53:29.890Z,1010.66
2023-03-17T02:54:29.902Z,1010.69
2023-03-17T02:55:29.907Z,1010.71
2023-03-17T02:56:29.917Z,1010.69
2023-03-17T02:57:29.945Z,1010.74
2023-03-17T02:58:29.932Z,1010.65
2023-03-17T02:59:29.971Z,1010.76
2023-03-17T03:00:30.180Z,1010.73
2023-03-17T03:01:30.005Z,1010.63
2023-03-17T03:02:29.988Z,1010.65
2023-03-17T03:03:29.982Z,1010.63
2023-03-17T03:04:29.989Z,1010.64
2023-03-17T03:05:29.998Z,1010.60
2023-03-17T03:06:30.016Z,1010.64
2023-03-17T03:07:30.023Z,1010.63
2023-03-17T03:08:30.026Z,1010.61
2023-03-17T03:09:30.038Z,1010.66
2023-03-17T03:10:30.155Z,1010.68
2023-03-17T03:11:30.053Z,1010.68
2023-03-17T03:12:30.063Z,1010.64
2023-03-17T03:13:30.082Z,1010.72
2023-03-17T03:14:30.190Z,1010.73
2023-03-17T03:15:30.118Z,1010.73
2023-03-17T03:16:30.103Z,1010.74
2023-03-17T03:17:30.113Z,1010.77
2023-03-17T03:18:30.118Z,1010.79
2023-03-17T03:19:30.129Z,1010.82
2023-03-17T03:20:30.365Z,1010.85
2023-03-17T03:21:30.149Z,1010.84
2023-03-17T03:22:30.157Z,1010.87
2023-03-17T03:23:30.174Z,1010.91
2023-03-17T03:24:30.173Z,1010.96
2023-03-17T03:25:30.187Z,1010.95
2023-03-17T03:26:30.192Z,1011.00
2023-03-17T03:27:30.208Z,1011.00
2023-03-17T03:28:30.229Z,1010.94
2023-03-17T03:29:30.237Z,1010.91
2023-03-17T03:30:30.412Z,1010.86
2023-03-17T03:31:30.301Z,1010.86
2023-03-17T03:32:30.304Z,1010.82
2023-03-17T03:33:30.271Z,1010.87
2023-03-17T03:34:30.277Z,1010.83
2023-03-17T03:35:30.295Z,1010.80
2023-03-17T03:36:30.295Z,1010.80
2023-03-17T03:37:30.299Z,1010.82
2023-03-17T03:38:30.308Z,1010.73
2023-03-17T03:39:30.356Z,1010.79
2023-03-17T03:40:30.500Z,1010.75
2023-03-17T03:41:30.342Z,1010.75
2023-03-17T03:42:30.343Z,1010.76
2023-03-17T03:43:30.358Z,1010.77
2023-03-17T03:44:30.362Z,1010.81
2023-03-17T03:45:30.369Z,1010.81
2023-03-17T03:46:30.421Z,1010.85
2023-03-17T03:47:30.387Z,1010.83
2023-03-17T03:48:30.402Z,1010.82
2023-03-17T03:49:30.401Z,1010.85
2023-03-17T03:50:30.559Z,1010.82
2023-03-17T03:51:30.457Z,1010.84
2023-03-17T03:52:30.434Z,1010.82
2023-03-17T03:53:30.441Z,1010.82
2023-03-17T03:54:30.448Z,1010.84
2023-03-17T03:55:30.462Z,1010.80
2023-03-17T03:56:30.470Z,1010.78
2023-03-17T03:57:30.482Z,1010.79
2023-03-17T03:58:30.491Z,1010.78
2023-03-17T03:59:30.516Z,1010.78
2023-03-17T04:00:30.666Z,1010.77
2023-03-17T04:01:30.521Z,1010.76
2023-03-17T04:02:30.541Z,1010.76
2023-03-17T04:03:30.539Z,1010.77
2023-03-17T04:04:30.579Z,1010.77
2023-03-17T04:05:30.555Z,1010.78
2023-03-17T04:06:30.563Z,1010.74
2023-03-17T04:07:30.574Z,1010.80
2023-03-17T04:08:30.582Z,1010.76
2023-03-17T04:09:30.598Z,1010.77
2023-03-17T04:10:30.787Z,1010.74
2023-03-17T04:11:30.609Z,1010.65
2023-03-17T04:12:30.619Z,1010.65
2023-03-17T04:13:30.638Z,1010.62
2023-03-17T04:14:30.641Z,1010.62
2023-03-17T04:15:30.647Z,1010.62
2023-03-17T04:16:30.722Z,1010.62
2023-03-17T04:17:30.666Z,1010.63
2023-03-17T04:18:30.674Z,1010.69
2023-03-17T04:19:30.683Z,1010.65
2023-03-17T04:20:30.829Z,1010.63
2023-03-17T04:21:30.706Z,1010.58
2023-03-17T04:22:30.710Z,1010.55
2023-03-17T04:23:30.722Z,1010.53
2023-03-17T04:24:30.733Z,1010.51
2023-03-17T04:25:30.744Z,1010.48
2023-03-17T04:26:30.748Z,1010.46
2023-03-17T04:27:30.757Z,1010.42
2023-03-17T04:28:30.768Z,1010.39
2023-03-17T04:29:30.778Z,1010.41
2023-03-17T04:30:30.932Z,1010.37
2023-03-17T04:31:30.810Z,1010.39
2023-03-17T04:32:30.901Z,1010.43
2023-03-17T04:33:30.819Z,1010.42
2023-03-17T04:34:30.824Z,1010.39
2023-03-17T04:35:31.008Z,1010.35
2023-03-17T04:36:30.846Z,1010.35
2023-03-17T04:37:31.772Z,1010.35
2023-03-17T04:38:30.858Z,1010.43
2023-03-17T04:39:30.871Z,1010.40
2023-03-17T04:40:31.147Z,1010.43
2023-03-17T04:41:30.896Z,1010.48
2023-03-17T04:42:30.896Z,1010.41
2023-03-17T04:43:30.907Z,1010.44
2023-03-17T04:44:30.916Z,1010.40
2023-03-17T04:45:30.966Z,1010.42
2023-03-17T04:46:30.934Z,1010.40
2023-03-17T04:47:30.945Z,1010.44
2023-03-17T04:48:30.955Z,1010.47
2023-03-17T04:49:30.960Z,1010.43
2023-03-17T04:50:31.085Z,1010.45
2023-03-17T04:51:30.979Z,1010.42
2023-03-17T04:52:30.989Z,1010.35
2023-03-17T04:53:31.000Z,1010.34
2023-03-17T04:54:31.016Z,1010.34
2023-03-17T04:55:31.027Z,1010.35
2023-03-17T04:56:31.978Z,1010.43
2023-03-17T04:57:31.042Z,1010.40
2023-03-17T04:58:31.373Z,1010.40
2023-03-17T04:59:31.061Z,1010.41
2023-03-17T05:00:31.288Z,1010.30
2023-03-17T05:01:31.085Z,1010.32
2023-03-17T05:02:31.178Z,1010.30
2023-03-17T05:03:31.102Z,1010.31
2023-03-17T05:04:32.364Z,1010.30
2023-03-17T05:05:31.117Z,1010.32
2023-03-17T05:06:31.118Z,1010.33
2023-03-17T05:07:32.824Z,1010.29
2023-03-17T05:08:31.137Z,1010.28
2023-03-17T05:09:31.148Z,1010.27
2023-03-17T05:10:31.445Z,1010.30
2023-03-17T05:11:31.163Z,1010.27
2023-03-17T05:12:31.175Z,1010.28
2023-03-17T05:13:31.186Z,1010.24
2023-03-17T05:14:31.186Z,1010.26
2023-03-17T05:15:31.202Z,1010.24
2023-03-17T05:16:31.315Z,1010.24
2023-03-17T05:17:31.219Z,1010.33
2023-03-17T05:18:31.226Z,1010.28
2023-03-17T05:19:31.238Z,1010.33
2023-03-17T05:20:31.543Z,1010.30
2023-03-17T05:21:31.259Z,1010.29
2023-03-17T05:22:31.264Z,1010.35
2023-03-17T05:23:31.273Z,1010.34
2023-03-17T05:24:31.320Z,1010.40
2023-03-17T05:25:31.298Z,1010.40
2023-03-17T05:26:31.303Z,1010.42
2023-03-17T05:27:31.310Z,1010.38
2023-03-17T05:28:31.320Z,1010.35
2023-03-17T05:29:31.332Z,1010.30
2023-03-17T05:30:31.649Z,1010.21
2023-03-17T05:31:31.348Z,1010.12
2023-03-17T05:32:31.380Z,1010.14
2023-03-17T05:33:31.364Z,1010.20
2023-03-17T05:34:31.375Z,1010.29
2023-03-17T05:35:31.405Z,1010.31
2023-03-17T05:36:31.395Z,1010.33
2023-03-17T05:37:31.407Z,1010.36
2023-03-17T05:38:31.413Z,1010.31
2023-03-17T05:39:31.426Z,1010.27
2023-03-17T05:40:31.746Z,1010.33
2023-03-17T05:41:31.447Z,1010.39
2023-03-17T05:42:31.451Z,1010.40
2023-03-17T05:43:31.460Z,1010.38
2023-03-17T05:44:31.472Z,1010.33
2023-03-17T05:45:31.478Z,1010.33
2023-03-17T05:46:31.537Z,1010.36
2023-03-17T05:47:31.496Z,1010.37
2023-03-17T05:48:31.504Z,1010.36
2023-03-17T05:49:31.530Z,1010.39
2023-03-17T05:50:31.696Z,1010.37
2023-03-17T05:51:31.542Z,1010.40
2023-03-17T05:52:31.550Z,1010.44
2023-03-17T05:53:31.561Z,1010.40
2023-03-17T05:54:31.575Z,1010.39
2023-03-17T05:55:31.581Z,1010.38
2023-03-17T05:56:31.588Z,1010.44
2023-03-17T05:57:31.590Z,1010.44
2023-03-17T05:58:31.630Z,1010.49
2023-03-17T05:59:31.609Z,1010.47
2023-03-17T06:00:32.019Z,1010.46
2023-03-17T06:01:31.631Z,1010.42
2023-03-17T06:02:31.708Z,1010.35
2023-03-17T06:03:31.691Z,1010.35
2023-03-17T06:04:31.660Z,1010.36
2023-03-17T06:05:31.676Z,1010.39
2023-03-17T06:06:31.686Z,1010.29
2023-03-17T06:07:44.594Z,1010.28
2023-03-17T06:08:31.701Z,1010.27
2023-03-17T06:09:31.712Z,1010.25
2023-03-17T06:10:31.977Z,1010.28
2023-03-17T06:11:31.724Z,1010.25
2023-03-17T06:12:31.735Z,1010.20
2023-03-17T06:13:31.757Z,1010.20
2023-03-17T06:14:31.758Z,1010.22
2023-03-17T06:15:32.014Z,1010.17
2023-03-17T06:16:31.775Z,1010.25
2023-03-17T06:17:31.796Z,1010.23
2023-03-17T06:18:31.795Z,1010.24
2023-03-17T06:19:31.800Z,1010.29
2023-03-17T06:20:31.814Z,1010.30
2023-03-17T06:21:31.835Z,1010.36
2023-03-17T06:22:31.837Z,1010.36
2023-03-17T06:23:31.848Z,1010.38
2023-03-17T06:24:31.874Z,1010.37
2023-03-17T06:25:32.212Z,1010.34
2023-03-17T06:26:31.872Z,1010.32
2023-03-17T06:27:31.885Z,1010.29
2023-03-17T06:28:31.893Z,1010.30
2023-03-17T06:29:31.903Z,1010.24
2023-03-17T06:30:31.918Z,1010.16
2023-03-17T06:31:31.973Z,1010.16
2023-03-17T06:32:31.961Z,1010.13
2023-03-17T06:33:31.944Z,1010.14
2023-03-17T06:34:31.963Z,1010.12
2023-03-17T06:35:32.229Z,1010.17
2023-03-17T06:36:31.978Z,1010.21
2023-03-17T06:37:31.989Z,1010.14
2023-03-17T06:38:31.995Z,1010.21
2023-03-17T06:39:32.006Z,1010.26
2023-03-17T06:40:32.048Z,1010.23
2023-03-17T06:41:32.024Z,1010.22
2023-03-17T06:42:32.034Z,1010.28
2023-03-17T06:43:32.049Z,1010.20
2023-03-17T06:44:32.057Z,1010.17
2023-03-17T06:45:32.352Z,1010.18
2023-03-17T06:46:32.078Z,1010.14
2023-03-17T06:47:32.104Z,1010.19
2023-03-17T06:48:32.099Z,1010.20
2023-03-17T06:49:32.105Z,1010.18
2023-03-17T06:50:32.117Z,1010.10
2023-03-17T06:51:32.128Z,1010.14
2023-03-17T06:52:32.144Z,1009.97
2023-03-17T06:53:32.156Z,1010.03
2023-03-17T06:54:32.175Z,1010.00
2023-03-17T06:55:32.458Z,1009.98
2023-03-17T06:56:32.175Z,1010.01
2023-03-17T06:57:32.189Z,1010.04
2023-03-17T06:58:32.197Z,1009.99
2023-03-17T06:59:32.210Z,1010.07
2023-03-17T07:00:32.241Z,1010.01
2023-03-17T07:01:32.269Z,1010.04
2023-03-17T07:02:32.251Z,1010.08
2023-03-17T07:03:32.249Z,1010.10
2023-03-17T07:04:32.291Z,1010.08
2023-03-17T07:05:32.539Z,1010.06
2023-03-17T07:06:32.284Z,1010.05
2023-03-17T07:07:32.300Z,1009.93
2023-03-17T07:08:32.319Z,1009.92
2023-03-17T07:09:32.315Z,1009.88
2023-03-17T07:10:32.328Z,1009.91
2023-03-17T07:11:32.343Z,1009.89
2023-03-17T07:12:32.348Z,1009.87
2023-03-17T07:13:32.362Z,1009.83
2023-03-17T07:14:32.389Z,1009.79
2023-03-17T07:15:32.674Z,1009.74
2023-03-17T07:16:32.436Z,1009.79
2023-03-17T07:17:32.409Z,1009.84
2023-03-17T07:18:32.440Z,1009.82
2023-03-17T07:19:32.424Z,1009.84
2023-03-17T07:20:32.455Z,1009.86
2023-03-17T07:21:32.450Z,1009.89
2023-03-17T07:22:32.464Z,1009.91
2023-03-17T07:23:32.480Z,1009.94
2023-03-17T07:24:32.492Z,1009.98
2023-03-17T07:25:32.796Z,1009.98
2023-03-17T07:26:32.501Z,1009.92
2023-03-17T07:27:32.534Z,1009.83
2023-03-17T07:28:32.529Z,1009.77
2023-03-17T07:29:32.533Z,1009.68
2023-03-17T07:30:32.557Z,1009.64
2023-03-17T07:31:32.573Z,1009.66
2023-03-17T07:32:32.588Z,1009.72
2023-03-17T07:33:32.594Z,1009.77
2023-03-17T07:34:32.655Z,1009.82
2023-03-17T07:35:32.963Z,1009.84
2023-03-17T07:36:32.626Z,1009.78
2023-03-17T07:37:32.636Z,1009.70
2023-03-17T07:38:32.663Z,1009.65
2023-03-17T07:39:32.651Z,1009.52
2023-03-17T07:40:34.873Z,1009.43
2023-03-17T07:41:32.711Z,1009.58
2023-03-17T07:42:32.687Z,1009.63
2023-03-17T07:43:32.698Z,1009.75
2023-03-17T07:44:32.708Z,1009.78
2023-03-17T07:45:33.036Z,1009.82
2023-03-17T07:46:32.743Z,1009.73
2023-03-17T07:47:32.750Z,1009.73
2023-03-17T07:48:32.817Z,1009.74
2023-03-17T07:49:41.374Z,1009.77
2023-03-17T07:50:32.793Z,1009.84
2023-03-17T07:51:32.795Z,1009.86
2023-03-17T07:52:32.808Z,1009.79
2023-03-17T07:53:32.824Z,1009.79
2023-03-17T07:54:32.857Z,1009.79
2023-03-17T07:55:33.101Z,1009.73
2023-03-17T07:56:32.881Z,1009.79
2023-03-17T07:57:32.937Z,1009.84
2023-03-17T07:58:32.882Z,1009.87
2023-03-17T07:59:32.904Z,1009.86
2023-03-17T08:00:33.171Z,1009.84
2023-03-17T08:01:32.915Z,1009.77
2023-03-17T08:02:32.991Z,1009.76
2023-03-17T08:03:32.966Z,1009.76
2023-03-17T08:04:32.952Z,1009.86
2023-03-17T08:05:32.965Z,1009.90
2023-03-17T08:06:32.982Z,1009.86
2023-03-17T08:07:33.052Z,1009.94
2023-03-17T08:08:33.014Z,1009.87
2023-03-17T08:09:33.020Z,1009.84
2023-03-17T08:10:33.356Z,1009.93
2023-03-17T08:11:33.049Z,1009.89
2023-03-17T08:12:33.052Z,1009.83
2023-03-17T08:13:33.072Z,1009.83
2023-03-17T08:14:33.081Z,1009.77
2023-03-17T08:15:33.097Z,1009.76
2023-03-17T08:16:33.172Z,1009.76
2023-03-17T08:17:33.157Z,1009.74
2023-03-17T08:18:33.128Z,1009.64
2023-03-17T08:19:33.151Z,1009.69
2023-03-17T08:20:33.450Z,1009.69
2023-03-17T08:21:33.193Z,1009.62
2023-03-17T08:22:33.182Z,1009.66
2023-03-17T08:23:33.196Z,1009.67
2023-03-17T08:24:33.206Z,1009.63
2023-03-17T08:25:33.221Z,1009.58
2023-03-17T08:26:33.237Z,1009.62
2023-03-17T08:27:33.992Z,1009.64
2023-03-17T08:28:33.300Z,1009.65
2023-03-17T08:29:33.282Z,1009.65
2023-03-17T08:30:33.989Z,1009.63
2023-03-17T08:31:33.348Z,1009.56
2023-03-17T08:32:33.367Z,1009.61
2023-03-17T08:33:33.357Z,1009.63
2023-03-17T08:34:33.342Z,1009.57
2023-03-17T08:35:33.700Z,1009.74
2023-03-17T08:36:33.372Z,1009.74
2023-03-17T08:37:33.387Z,1009.79
2023-03-17T08:38:33.400Z,1009.78
2023-03-17T08:39:33.412Z,1009.77
2023-03-17T08:40:33.702Z,1009.77
2023-03-17T08:41:33.442Z,1009.74
2023-03-17T08:42:33.455Z,1009.64
2023-03-17T08:43:33.468Z,1009.59
2023-03-17T08:44:33.495Z,1009.57
2023-03-17T08:45:33.496Z,1009.54
2023-03-17T08:46:33.558Z,1009.51
2023-03-17T08:47:33.526Z,1009.47
2023-03-17T08:48:33.542Z,1009.39
2023-03-17T08:49:33.557Z,1009.38
2023-03-17T08:50:34.084Z,1009.31
2023-03-17T08:51:33.592Z,1009.32
2023-03-17T08:52:33.602Z,1009.30
2023-03-17T08:53:33.620Z,1009.30
2023-03-17T08:54:33.636Z,1009.34
2023-03-17T08:55:33.647Z,1009.37
2023-03-17T08:56:33.663Z,1009.35
2023-03-17T08:57:33.695Z,1009.32
2023-03-17T08:58:33.692Z,1009.30
2023-03-17T08:59:33.707Z,1009.31
2023-03-17T09:00:33.944Z,1009.31
2023-03-17T09:01:33.753Z,1009.25
2023-03-17T09:02:33.765Z,1009.23
2023-03-17T09:03:33.786Z,1009.14
2023-03-17T09:04:33.787Z,1009.12
2023-03-17T09:05:35.677Z,1009.19
2023-03-17T09:06:33.819Z,1009.14
2023-03-17T09:07:33.855Z,1009.14
2023-03-17T09:08:33.846Z,1009.10
2023-03-17T09:09:33.866Z,1009.05
2023-03-17T09:10:34.044Z,1009.09
2023-03-17T09:11:33.894Z,1009.10
2023-03-17T09:12:34.309Z,1009.07
2023-03-17T09:13:33.926Z,1009.06
2023-03-17T09:14:42.738Z,1009.09
2023-03-17T09:15:34.236Z,1009.06
2023-03-17T09:16:34.046Z,1009.12
2023-03-17T09:17:34.000Z,1009.17
2023-03-17T09:18:34.005Z,1009.13
2023-03-17T09:19:34.020Z,1009.08
2023-03-17T09:20:34.036Z,1009.09
2023-03-17T09:21:34.071Z,1009.11
2023-03-17T09:22:34.078Z,1009.13
2023-03-17T09:23:34.080Z,1009.07
2023-03-17T09:24:34.108Z,1009.13
2023-03-17T09:25:34.120Z,1009.07
2023-03-17T09:26:34.131Z,1009.05
2023-03-17T09:27:34.148Z,1009.05
2023-03-17T09:28:34.168Z,1009.03
2023-03-17T09:29:34.175Z,1009.05
2023-03-17T09:30:34.206Z,1009.06
2023-03-17T09:31:34.256Z,1009.06
2023-03-17T09:32:34.304Z,1009.07
2023-03-17T09:33:34.242Z,1009.11
2023-03-17T09:34:34.265Z,1009.06
2023-03-17T09:35:34.306Z,1009.03
2023-03-17T09:36:34.288Z,1009.02
2023-03-17T09:37:34.310Z,1009.04
2023-03-17T09:38:34.322Z,1008.97
2023-03-17T09:39:34.338Z,1009.00
2023-03-17T09:40:34.765Z,1009.01
2023-03-17T09:41:34.392Z,1008.99
2023-03-17T09:42:34.394Z,1009.05
2023-03-17T09:43:34.407Z,1008.95
2023-03-17T09:44:34.441Z,1009.04
2023-03-17T09:45:34.438Z,1009.02
2023-03-17T09:46:34.496Z,1009.12
2023-03-17T09:47:34.473Z,1009.09
2023-03-17T09:48:34.494Z,1009.08
2023-03-17T09:49:34.505Z,1009.03
2023-03-17T09:50:34.521Z,1009.03
2023-03-17T09:51:34.540Z,1008.95
2023-03-17T09:52:34.554Z,1008.94
2023-03-17T09:53:34.576Z,1008.92
2023-03-17T09:54:34.592Z,1008.96
2023-03-17T09:55:34.606Z,1008.98
2023-03-17T09:56:34.626Z,1009.01
2023-03-17T09:57:34.636Z,1008.95
2023-03-17T09:58:34.650Z,1008.94
2023-03-17T09:59:34.669Z,1008.91
2023-03-17T10:00:34.691Z,1008.95
2023-03-17T10:01:34.726Z,1008.92
2023-03-17T10:02:34.719Z,1008.89
2023-03-17T10:03:34.748Z,1008.87
2023-03-17T10:04:34.755Z,1008.84
2023-03-17T10:05:35.101Z,1008.86
2023-03-17T10:06:34.867Z,1008.88
2023-03-17T10:07:34.803Z,1008.87
2023-03-17T10:08:34.833Z,1008.89
2023-03-17T10:09:34.844Z,1008.87
2023-03-17T10:10:34.853Z,1008.90
2023-03-17T10:11:34.872Z,1008.87
2023-03-17T10:12:34.887Z,1008.92
2023-03-17T10:13:34.923Z,1008.85
2023-03-17T10:14:34.921Z,1008.85
2023-03-17T10:15:34.939Z,1008.82
2023-03-17T10:16:35.008Z,1008.87
2023-03-17T10:17:34.980Z,1008.88
2023-03-17T10:18:34.993Z,1008.87
2023-03-17T10:19:35.010Z,1008.80
2023-03-17T10:20:35.033Z,1008.91
2023-03-17T10:21:35.080Z,1008.94
2023-03-17T10:22:35.094Z,1008.83
2023-03-17T10:23:35.098Z,1008.89
2023-03-17T10:24:35.134Z,1008.91
2023-03-17T10:25:35.251Z,1008.84
2023-03-17T10:26:35.135Z,1008.94
2023-03-17T10:27:35.178Z,1008.90
2023-03-17T10:28:35.195Z,1008.91
2023-03-17T10:29:35.204Z,1008.86
2023-03-17T10:30:35.202Z,1008.93
2023-03-17T10:31:35.324Z,1008.91
2023-03-17T10:32:35.270Z,1008.94
2023-03-17T10:33:35.249Z,1008.89
2023-03-17T10:34:37.398Z,1008.91
2023-03-17T10:35:35.308Z,1008.83
2023-03-17T10:36:35.307Z,1008.87
2023-03-17T10:37:35.317Z,1008.78
2023-03-17T10:38:35.339Z,1008.82
2023-03-17T10:39:35.354Z,1008.83
2023-03-17T10:40:35.375Z,1008.78
2023-03-17T10:41:35.385Z,1008.77
2023-03-17T10:42:35.412Z,1008.75
2023-03-17T10:43:35.435Z,1008.74
2023-03-17T10:44:35.442Z,1008.74
2023-03-17T10:45:35.457Z,1008.74
2023-03-17T10:46:35.525Z,1008.66
2023-03-17T10:47:35.498Z,1008.61
2023-03-17T10:48:35.513Z,1008.60
2023-03-17T10:49:35.529Z,1008.63
2023-03-17T10:50:35.560Z,1008.59
2023-03-17T10:51:35.566Z,1008.62
2023-03-17T10:52:35.582Z,1008.64
2023-03-17T10:53:35.603Z,1008.68
2023-03-17T10:54:35.625Z,1008.63
2023-03-17T10:55:35.637Z,1008.56
2023-03-17T10:56:35.670Z,1008.62
2023-03-17T10:57:35.680Z,1008.57
2023-03-17T10:58:35.698Z,1008.61
2023-03-17T10:59:35.718Z,1008.60
2023-03-17T11:00:35.744Z,1008.54
2023-03-17T11:01:35.752Z,1008.57
2023-03-17T11:02:35.772Z,1008.53
2023-03-17T11:03:35.840Z,1008.56
2023-03-17T11:04:35.825Z,1008.53
2023-03-17T11:05:36.060Z,1008.49
2023-03-17T11:06:35.844Z,1008.45
2023-03-17T11:07:35.865Z,1008.45
2023-03-17T11:08:35.904Z,1008.49
2023-03-17T11:09:35.913Z,1008.43
2023-03-17T11:10:35.945Z,1008.49
2023-03-17T11:11:35.936Z,1008.47
2023-03-17T11:12:35.963Z,1008.41
2023-03-17T11:13:35.979Z,1008.38
2023-03-17T11:14:35.995Z,1008.37
2023-03-17T11:15:36.031Z,1008.43
2023-03-17T11:16:36.073Z,1008.40
2023-03-17T11:17:36.051Z,1008.38
2023-03-17T11:18:36.069Z,1008.41
2023-03-17T11:19:36.088Z,1008.40
2023-03-17T11:20:36.112Z,1008.43
2023-03-17T11:21:36.130Z,1008.39
2023-03-17T11:22:36.147Z,1008.37
2023-03-17T11:23:36.172Z,1008.35
2023-03-17T11:24:36.205Z,1008.34
2023-03-17T11:25:36.209Z,1008.25
2023-03-17T11:26:36.231Z,1008.36
2023-03-17T11:27:36.249Z,1008.32
2023-03-17T11:28:36.263Z,1008.29
2023-03-17T11:29:36.282Z,1008.27
2023-03-17T11:30:36.306Z,1008.26
2023-03-17T11:31:36.352Z,1008.20
2023-03-17T11:32:36.368Z,1008.23
2023-03-17T11:33:36.376Z,1008.24
2023-03-17T11:34:36.380Z,1008.26
2023-03-17T11:35:36.417Z,1008.28
2023-03-17T11:36:36.414Z,1008.23
2023-03-17T11:37:36.445Z,1008.25
2023-03-17T11:38:36.454Z,1008.25
2023-03-17T11:39:36.474Z,1008.25
2023-03-17T11:40:36.491Z,1008.23
2023-03-17T11:41:36.510Z,1008.26
2023-03-17T11:42:36.533Z,1008.24
2023-03-17T11:43:36.548Z,1008.17
2023-03-17T11:44:36.575Z,1008.22
2023-03-17T11:45:36.648Z,1008.22
2023-03-17T11:46:36.602Z,1008.27
2023-03-17T11:47:36.621Z,1008.23
2023-03-17T11:48:36.646Z,1008.23
2023-03-17T11:49:36.663Z,1008.24
2023-03-17T11:50:36.683Z,1008.11
2023-03-17T11:51:36.707Z,1008.15
2023-03-17T11:52:36.722Z,1008.19
2023-03-17T11:53:36.737Z,1008.17
2023-03-17T11:54:36.760Z,1008.18
2023-03-17T11:55:36.774Z,1008.13
2023-03-17T11:56:36.795Z,1008.15
2023-03-17T11:57:36.815Z,1008.11
2023-03-17T11:58:36.830Z,1008.04
2023-03-17T11:59:36.869Z,1008.04
2023-03-17T12:00:36.872Z,1008.08
2023-03-17T12:01:36.889Z,1008.09
2023-03-17T12:02:36.943Z,1008.05
2023-03-17T12:03:36.972Z,1008.02
2023-03-17T12:04:36.988Z,1008.03
2023-03-17T12:05:36.967Z,1008.03